KLAR/LAR METAR and TAF weather

Enter ICAO airport designator
Station Type Date Time Source
KLAR METAR 2020/07/11 02:53 UTC NOAA

KLAR 110253Z AUTO 32010KT 10SM CLR 20/M06 A3032 RMK AO2 SLP145 T02001061 51008


Station Type Date Time Source
KLAR Decoded METAR 2020/07/11 02:53 UTC NOAA

LARAMIE REGIONAL AIRPORT, WY, United States (KLAR) 41-19N 105-40W 2216M
Jul 10, 2020 - 10:53 PM EDT / 2020.07.11 0253 UTC
Wind: from the NW (320 degrees) at 12 MPH (10 KT):0
Visibility: 10 mile(s):0
Sky conditions: clear
Temperature: 68.0 F (20.0 C)
Dew Point: 21.0 F (-6.1 C)
Relative Humidity: 16%
Pressure (altimeter): 30.32 in. Hg (1026 hPa)
Pressure tendency: 0.02 inches (0.8 hPa) higher than three hours ago
ob: KLAR 110253Z AUTO 32010KT 10SM CLR 20/M06 A3032 RMK AO2 SLP145 T02001061 51008
cycle: 3

Station Type Date Time Source
KLAR TAF 2020/07/10 18:39 UTC NOAA

TAF KLAR 101736Z 1018/1118 23012G20KT P6SM SKC
FM101900 29025G35KT P6SM SKC
FM110300 32012KT P6SM FEW250
FM110600 24007KT P6SM SKC

Example: see airport list